Flight Track Log - Related Links

Times and Time Zones

All times are in EDT time to prevent confusion due to time zone crossing. See the EJA396 flight status page for this flight to view local times or setup timezone preferences in your user account.

Time Position Orientation Groundspeed Altitude Reporting Facility
EDT Latitude Longitude Course Direction KTS MPH feet Rate Location/Type
Sat 10:18:37 AM 37.3833 -121.9667 141° Southeast 195 224 2,200  Level Northern Cal TRACON
Sat 10:19:37 AM 37.4333 -121.9833 345° North 215 247 4,800 1,450 Climbing Northern Cal TRACON
Sat 10:20:37 AM 37.4167 -121.9167 107° East 229 264 5,100 1,900 Climbing Northern Cal TRACON
Sat 10:21:37 AM 37.3667 -121.8667 142° Southeast 243 280 8,600 3,130 Climbing Northern Cal TRACON
Sat 10:22:09 AM 37.3444 -121.8344 131° Southeast 251 289 9,900 3,097 Climbing Oakland Center
Sat 10:23:10 AM 37.2758 -121.7536 137° Southeast 334 384 13,400 3,443 Climbing Oakland Center
Sat 10:24:00 AM 36.9993 -121.3300 141° Southeast  Level Estimated
Sat 10:24:11 AM 37.1989 -121.6692 139° Southeast 366 421 16,900  Level Oakland Center
Sat 10:25:12 AM 37.1183 -121.5781 138° Southeast 387 445 20,300 3,148 Climbing Oakland Center
Sat 10:26:13 AM 37.0325 -121.4864 140° Southeast 408 470 23,300 2,607 Climbing Oakland Center
Sat 10:27:14 AM 36.9469 -121.3850 137° Southeast 421 484 25,600 2,066 Climbing Oakland Center
Sat 10:28:15 AM 36.8544 -121.2833 139° Southeast 441 507 27,500 1,672 Climbing Oakland Center
Sat 10:29:16 AM 36.7419 -121.1703 141° Southeast 447 514 29,000 934 Climbing Oakland Center
Sat 10:30:17 AM 36.6450 -121.0572 137° Southeast 469 540 29,400 1,623 Climbing Oakland Center
Sat 10:31:18 AM 36.5472 -120.9514 139° Southeast 465 535 32,300 2,262 Climbing Oakland Center
Sat 10:32:19 AM 36.4522 -120.8464 138° Southeast 456 525 34,000 1,289 Climbing Oakland Center
Sat 10:33:19 AM 36.3553 -120.7361 137° Southeast 469 540 34,900 496 Climbing Oakland Center
Sat 10:34:20 AM 36.2547 -120.6267 139° Southeast 479 551 35,000 49 Climbing Oakland Center
Sat 10:35:21 AM 36.1717 -120.4897 127° Southeast 489 563 35,000  Level Oakland Center
Sat 10:36:22 AM 36.0856 -120.3464 127° Southeast 509 586 35,000  Level Oakland Center
Sat 10:37:23 AM 36.0022 -120.2122 127° Southeast 494 568 35,000  Level Oakland Center
Sat 10:38:24 AM 35.9181 -120.0789 128° Southeast 486 559 35,000  Level Oakland Center
Sat 10:39:25 AM 35.8344 -119.9431 127° Southeast 493 567 35,000  Level Oakland Center
Sat 10:40:26 AM 35.7503 -119.8081 128° Southeast 494 568 35,000  Level Oakland Center
Sat 10:41:27 AM 35.6653 -119.6731 128° Southeast 495 570 35,000  Level Oakland Center
Sat 10:42:28 AM 35.5828 -119.5419 128° Southeast 485 558 35,000  Level Oakland Center
Sat 10:43:29 AM 35.4994 -119.4108 128° Southeast 486 559 35,000  Level Oakland Center
Sat 10:43:53 AM 35.4678 -119.3581 126° Southeast 481 554 35,000  Level Los Angeles Center
Sat 10:44:54 AM 35.3689 -119.2017 128° Southeast 481 554 35,000  Level Los Angeles Center
Sat 10:45:58 AM 35.2847 -119.0667 127° Southeast 492 566 35,000  Level Los Angeles Center
Sat 10:46:57 AM 35.1989 -118.9358 129° Southeast 494 568 35,000 -99 Level Los Angeles Center
Sat 10:47:59 AM 35.1136 -118.8067 129° Southeast 489 563 34,800 -1,268 Descending Los Angeles Center
Sat 10:49:00 AM 35.0328 -118.6789 128° Southeast 480 552 32,400 -2,439 Descending Los Angeles Center
Sat 10:50:02 AM 34.9483 -118.5500 129° Southeast 483 556 29,800 -2,341 Descending Los Angeles Center
Sat 10:51:03 AM 34.8683 -118.4261 128° Southeast 478 550 27,600 -2,390 Descending Los Angeles Center
Sat 10:52:05 AM 34.7894 -118.3067 129° Southeast 461 531 24,900 -2,855 Descending Los Angeles Center
Sat 10:53:07 AM 34.6975 -118.1653 128° Southeast 449 517 21,700 -1,902 Descending Los Angeles Center
Sat 10:54:08 AM 34.6253 -118.0514 128° Southeast 433 498 21,000 -341 Descending Los Angeles Center
Sat 10:55:10 AM 34.5669 -117.9250 119° Southeast 433 498 21,000  Level Los Angeles Center
Sat 10:56:11 AM 34.5089 -117.7986 119° Southeast 433 498 21,000 -98 Level Los Angeles Center
Sat 10:57:13 AM 34.4506 -117.6722 119° Southeast 433 498 20,800 -976 Descending Los Angeles Center
Sat 10:58:14 AM 34.3953 -117.5511 119° Southeast 418 481 19,000 -1,756 Descending Los Angeles Center
Sat 10:59:16 AM 34.3358 -117.4222 119° Southeast 399 459 17,200 -1,073 Descending Los Angeles Center
Sat 11:00:17 AM 34.2833 -117.3053 118° Southeast 396 456 16,800 -780 Descending Los Angeles Center
Sat 11:01:19 AM 34.2300 -117.1922 120° Southeast 387 445 15,600 -1,355 Descending Los Angeles Center
Sat 11:02:21 AM 34.1758 -117.0756 119° Southeast 368 423 14,000 -780 Descending Los Angeles Center
Sat 11:03:22 AM 34.1289 -116.9794 121° Southeast 338 389 14,000 55 Level Los Angeles Center
Sat 11:04:10 AM 34.0833 -116.8833 120° Southeast 322 371 14,100  Climbing Southern California TRACON
Sat 11:05:10 AM 34.0500 -116.8000 116° Southeast 316 364 14,000  Descending Southern California TRACON
Sat 11:05:26 AM 34.0381 -116.7850 134° Southeast 315 362 14,100 -1,247 Climbing Los Angeles Center
Sat 11:06:27 AM 33.9958 -116.6922 119° Southeast 314 361 12,400 -2,049 Descending Los Angeles Center
Sat 11:07:29 AM 33.9583 -116.6136 120° Southeast 278 320 9,900 -2,468 Descending Los Angeles Center
Sat 11:08:31 AM 33.9292 -116.5508 119° Southeast 231 266 7,300 -2,407 Descending Los Angeles Center
Sat 11:10:11 AM 33.8667 -116.4667 132° Southeast 193 222 3,400 -1,988 Descending Southern California TRACON
Sat 11:11:11 AM 33.8333 -116.4333 140° Southeast 157 181 2,000 -1,000 Descending Southern California TRACON
Sat 11:12:11 AM 33.8000 -116.4667 220° Southwest 133 153 1,400 -650 Descending Southern California TRACON
Sat 11:13:11 AM 33.8167 -116.5000 301° West 123 142 700 -700 Descending Southern California TRACON
Sat 11:15:00 AM 33.8297 -116.5067 239° Southwest  Level Estimated

Login

Don't have an account? Register now (free) for customized features, flight alerts, and more!